sensor_id;sensor_type;location;lat;lon;timestamp;pressure;altitude;pressure_sealevel;temperature;humidity
68871;BME280;55906;52.278;6.808;2023-05-10T00:00:57;100661.88;;;14.77;92.84
68871;BME280;55906;52.278;6.808;2023-05-10T00:03:24;100660.06;;;14.68;92.69
68871;BME280;55906;52.278;6.808;2023-05-10T00:05:51;100651.25;;;14.68;92.45
68871;BME280;55906;52.278;6.808;2023-05-10T00:08:17;100655.63;;;14.63;92.70
68871;BME280;55906;52.278;6.808;2023-05-10T00:10:44;100661.78;;;14.57;92.53
68871;BME280;55906;52.278;6.808;2023-05-10T00:13:12;100653.81;;;14.54;92.26
68871;BME280;55906;52.278;6.808;2023-05-10T00:15:39;100652.91;;;14.52;92.30
68871;BME280;55906;52.278;6.808;2023-05-10T00:18:06;100648.47;;;14.50;92.34
68871;BME280;55906;52.278;6.808;2023-05-10T00:20:32;100648.47;;;14.50;92.45
68871;BME280;55906;52.278;6.808;2023-05-10T00:22:59;100660.84;;;14.51;92.37
68871;BME280;55906;52.278;6.808;2023-05-10T00:25:26;100659.94;;;14.49;92.21
68871;BME280;55906;52.278;6.808;2023-05-10T00:27:52;100657.28;;;14.47;92.25
68871;BME280;55906;52.278;6.808;2023-05-10T00:30:22;100655.47;;;14.41;92.63
68871;BME280;55906;52.278;6.808;2023-05-10T00:32:48;100660.75;;;14.40;92.60
68871;BME280;55906;52.278;6.808;2023-05-10T00:35:15;100655.44;;;14.37;92.83
68871;BME280;55906;52.278;6.808;2023-05-10T00:37:43;100652.78;;;14.37;92.39
68871;BME280;55906;52.278;6.808;2023-05-10T00:40:11;100655.44;;;14.38;92.46
68871;BME280;55906;52.278;6.808;2023-05-10T00:42:38;100652.75;;;14.31;92.55
68871;BME280;55906;52.278;6.808;2023-05-10T00:45:05;100658.06;;;14.34;92.38
68871;BME280;55906;52.278;6.808;2023-05-10T00:47:34;100649.25;;;14.35;92.38
68871;BME280;55906;52.278;6.808;2023-05-10T00:50:01;100647.47;;;14.32;92.25
68871;BME280;55906;52.278;6.808;2023-05-10T00:52:28;100643.06;;;14.34;92.12
68871;BME280;55906;52.278;6.808;2023-05-10T00:54:58;100650.09;;;14.32;92.16
68871;BME280;55906;52.278;6.808;2023-05-10T00:57:25;100651.84;;;14.30;92.16
68871;BME280;55906;52.278;6.808;2023-05-10T00:59:52;100646.56;;;14.30;92.05
68871;BME280;55906;52.278;6.808;2023-05-10T01:02:19;100650.06;;;14.29;92.29
68871;BME280;55906;52.278;6.808;2023-05-10T01:04:49;100642.16;;;14.31;92.18
68871;BME280;55906;52.278;6.808;2023-05-10T01:07:17;100650.94;;;14.30;91.67
68871;BME280;55906;52.278;6.808;2023-05-10T01:09:44;100645.63;;;14.30;91.83
68871;BME280;55906;52.278;6.808;2023-05-10T01:12:14;100640.34;;;14.28;92.05
68871;BME280;55906;52.278;6.808;2023-05-10T01:14:44;100642.09;;;14.28;92.03
68871;BME280;55906;52.278;6.808;2023-05-10T01:17:13;100644.81;;;14.31;92.13
68871;BME280;55906;52.278;6.808;2023-05-10T01:19:41;100649.22;;;14.32;91.70
68871;BME280;55906;52.278;6.808;2023-05-10T01:22:22;100645.63;;;14.30;91.80
68871;BME280;55906;52.278;6.808;2023-05-10T01:25:18;100646.59;;;14.33;91.79
68871;BME280;55906;52.278;6.808;2023-05-10T01:34:48;100648.34;;;14.31;91.78
68871;BME280;55906;52.278;6.808;2023-05-10T01:37:21;100650.03;;;14.26;92.01
68871;BME280;55906;52.278;6.808;2023-05-10T01:39:57;100651.81;;;14.29;91.93
68871;BME280;55906;52.278;6.808;2023-05-10T01:42:26;100654.50;;;14.32;91.46
68871;BME280;55906;52.278;6.808;2023-05-10T01:45:02;100645.63;;;14.30;91.52
68871;BME280;55906;52.278;6.808;2023-05-10T01:47:35;100656.22;;;14.27;91.67
68871;BME280;55906;52.278;6.808;2023-05-10T01:50:10;100652.69;;;14.28;91.81
68871;BME280;55906;52.278;6.808;2023-05-10T01:52:42;100650.91;;;14.27;91.81
68871;BME280;55906;52.278;6.808;2023-05-10T01:55:13;100650.03;;;14.28;91.85
68871;BME280;55906;52.278;6.808;2023-05-10T01:57:43;100649.13;;;14.23;92.05
68871;BME280;55906;52.278;6.808;2023-05-10T02:00:12;100654.38;;;14.20;91.96
68871;BME280;55906;52.278;6.808;2023-05-10T02:02:44;100657.06;;;14.23;91.98
68871;BME280;55906;52.278;6.808;2023-05-10T02:05:14;100655.31;;;14.25;91.73
68871;BME280;55906;52.278;6.808;2023-05-10T02:07:42;100657.94;;;14.22;91.69
68871;BME280;55906;52.278;6.808;2023-05-10T02:10:10;100658.78;;;14.18;91.98
68871;BME280;55906;52.278;6.808;2023-05-10T02:12:41;100648.22;;;14.21;91.68
68871;BME280;55906;52.278;6.808;2023-05-10T02:15:09;100657.91;;;14.20;91.71
68871;BME280;55906;52.278;6.808;2023-05-10T02:17:37;100657.91;;;14.17;91.70
68871;BME280;55906;52.278;6.808;2023-05-10T02:20:07;100656.13;;;14.16;92.04
68871;BME280;55906;52.278;6.808;2023-05-10T02:22:35;100661.44;;;14.18;91.89
68871;BME280;55906;52.278;6.808;2023-05-10T02:25:03;100659.66;;;14.15;92.36
68871;BME280;55906;52.278;6.808;2023-05-10T02:27:31;100657.00;;;14.14;91.81
68871;BME280;55906;52.278;6.808;2023-05-10T02:29:58;100663.16;;;14.13;92.00
68871;BME280;55906;52.278;6.808;2023-05-10T02:32:26;100668.44;;;14.11;92.17
68871;BME280;55906;52.278;6.808;2023-05-10T02:34:54;100667.56;;;14.12;91.93
68871;BME280;55906;52.278;6.808;2023-05-10T02:37:22;100670.19;;;14.10;92.00
68871;BME280;55906;52.278;6.808;2023-05-10T02:39:52;100673.72;;;14.13;92.03
68871;BME280;55906;52.278;6.808;2023-05-10T02:42:23;100668.44;;;14.13;92.08
68871;BME280;55906;52.278;6.808;2023-05-10T02:44:52;100671.06;;;14.11;92.06
68871;BME280;55906;52.278;6.808;2023-05-10T02:47:19;100676.31;;;14.05;92.51
68871;BME280;55906;52.278;6.808;2023-05-10T02:49:47;100671.94;;;14.08;92.17
68871;BME280;55906;52.278;6.808;2023-05-10T02:52:16;100676.34;;;14.08;92.43
68871;BME280;55906;52.278;6.808;2023-05-10T02:54:48;100670.16;;;14.07;92.32
68871;BME280;55906;52.278;6.808;2023-05-10T02:57:17;100664.84;;;14.04;92.57
68871;BME280;55906;52.278;6.808;2023-05-10T02:59:48;100677.19;;;14.05;92.64
68871;BME280;55906;52.278;6.808;2023-05-10T03:02:15;100674.53;;;14.04;92.61
68871;BME280;55906;52.278;6.808;2023-05-10T03:04:42;100678.09;;;14.06;92.49
68871;BME280;55906;52.278;6.808;2023-05-10T03:07:09;100671.91;;;14.05;92.75
68871;BME280;55906;52.278;6.808;2023-05-10T03:09:36;100668.38;;;14.05;92.51
68871;BME280;55906;52.278;6.808;2023-05-10T03:12:11;100659.53;;;14.01;92.84
68871;BME280;55906;52.278;6.808;2023-05-10T03:14:49;100661.31;;;14.02;92.85
68871;BME280;55906;52.278;6.808;2023-05-10T03:17:23;100668.31;;;13.97;93.22
68871;BME280;55906;52.278;6.808;2023-05-10T03:19:54;100679.78;;;13.98;93.57
68871;BME280;55906;52.278;6.808;2023-05-10T03:22:24;100671.84;;;13.99;93.17
68871;BME280;55906;52.278;6.808;2023-05-10T03:24:54;100684.19;;;13.97;93.30
68871;BME280;55906;52.278;6.808;2023-05-10T03:27:22;100678.03;;;13.98;93.16
68871;BME280;55906;52.278;6.808;2023-05-10T03:29:52;100671.84;;;13.99;93.31
68871;BME280;55906;52.278;6.808;2023-05-10T03:32:19;100676.22;;;13.94;93.62
68871;BME280;55906;52.278;6.808;2023-05-10T03:34:46;100685.97;;;13.98;93.30
68871;BME280;55906;52.278;6.808;2023-05-10T03:37:13;100682.41;;;13.96;93.61
68871;BME280;55906;52.278;6.808;2023-05-10T03:39:39;100684.19;;;13.97;93.46
68871;BME280;55906;52.278;6.808;2023-05-10T03:42:06;100694.75;;;13.96;93.63
68871;BME280;55906;52.278;6.808;2023-05-10T03:44:33;100687.66;;;13.90;94.11
68871;BME280;55906;52.278;6.808;2023-05-10T03:47:00;100684.16;;;13.94;93.91
68871;BME280;55906;52.278;6.808;2023-05-10T03:49:27;100688.59;;;13.97;93.73
68871;BME280;55906;52.278;6.808;2023-05-10T03:51:54;100689.47;;;13.97;93.66
68871;BME280;55906;52.278;6.808;2023-05-10T03:54:20;100696.56;;;14.01;93.53
68871;BME280;55906;52.278;6.808;2023-05-10T03:56:47;100689.53;;;14.03;93.61
68871;BME280;55906;52.278;6.808;2023-05-10T03:59:14;100701.88;;;14.04;93.61
68871;BME280;55906;52.278;6.808;2023-05-10T04:01:41;100699.25;;;14.06;93.60
68871;BME280;55906;52.278;6.808;2023-05-10T04:04:08;100702.78;;;14.08;93.71
68871;BME280;55906;52.278;6.808;2023-05-10T04:06:35;100711.59;;;14.07;93.90
68871;BME280;55906;52.278;6.808;2023-05-10T04:09:02;100710.72;;;14.06;93.99
68871;BME280;55906;52.278;6.808;2023-05-10T04:11:29;100710.72;;;14.08;94.35
68871;BME280;55906;52.278;6.808;2023-05-10T04:13:56;100711.66;;;14.13;93.89
68871;BME280;55906;52.278;6.808;2023-05-10T04:16:23;100706.38;;;14.15;94.05
68871;BME280;55906;52.278;6.808;2023-05-10T04:18:49;100713.44;;;14.16;93.72
68871;BME280;55906;52.278;6.808;2023-05-10T04:21:17;100713.44;;;14.14;94.19
68871;BME280;55906;52.278;6.808;2023-05-10T04:23:44;100709.94;;;14.17;93.96
68871;BME280;55906;52.278;6.808;2023-05-10T04:26:11;100705.50;;;14.16;94.14
68871;BME280;55906;52.278;6.808;2023-05-10T04:28:37;100704.59;;;14.14;94.32
68871;BME280;55906;52.278;6.808;2023-05-10T04:31:05;100713.44;;;14.14;94.74
68871;BME280;55906;52.278;6.808;2023-05-10T04:33:32;100717.00;;;14.19;93.97
68871;BME280;55906;52.278;6.808;2023-05-10T04:35:59;100717.00;;;14.19;94.20
68871;BME280;55906;52.278;6.808;2023-05-10T04:38:28;100707.31;;;14.20;94.19
68871;BME280;55906;52.278;6.808;2023-05-10T04:41:03;100712.63;;;14.23;94.00
68871;BME280;55906;52.278;6.808;2023-05-10T04:43:30;100714.41;;;14.24;93.93
68871;BME280;55906;52.278;6.808;2023-05-10T04:45:57;100717.06;;;14.25;93.96
68871;BME280;55906;52.278;6.808;2023-05-10T04:48:24;100720.56;;;14.23;94.21
68871;BME280;55906;52.278;6.808;2023-05-10T04:50:50;100723.22;;;14.26;94.07
68871;BME280;55906;52.278;6.808;2023-05-10T04:53:17;100716.16;;;14.25;93.93
68871;BME280;55906;52.278;6.808;2023-05-10T04:55:45;100719.72;;;14.27;93.83
68871;BME280;55906;52.278;6.808;2023-05-10T04:58:12;100721.53;;;14.31;93.78
68871;BME280;55906;52.278;6.808;2023-05-10T05:00:38;100730.31;;;14.30;93.95
68871;BME280;55906;52.278;6.808;2023-05-10T05:03:05;100729.41;;;14.26;94.20
68871;BME280;55906;52.278;6.808;2023-05-10T05:05:31;100733.84;;;14.29;93.93
68871;BME280;55906;52.278;6.808;2023-05-10T05:07:58;100732.16;;;14.34;93.84
68871;BME280;55906;52.278;6.808;2023-05-10T05:10:25;100735.72;;;14.37;93.73
68871;BME280;55906;52.278;6.808;2023-05-10T05:12:53;100736.66;;;14.43;93.73
68871;BME280;55906;52.278;6.808;2023-05-10T05:15:19;100741.06;;;14.42;93.57
68871;BME280;55906;52.278;6.808;2023-05-10T05:17:46;100751.69;;;14.44;93.73
68871;BME280;55906;52.278;6.808;2023-05-10T05:20:13;100746.41;;;14.45;93.68
68871;BME280;55906;52.278;6.808;2023-05-10T05:22:40;100743.72;;;14.42;93.92
68871;BME280;55906;52.278;6.808;2023-05-10T05:25:07;100744.56;;;14.41;93.78
68871;BME280;55906;52.278;6.808;2023-05-10T05:27:34;100750.81;;;14.45;93.81
68871;BME280;55906;52.278;6.808;2023-05-10T05:30:02;100754.38;;;14.50;93.45
68871;BME280;55906;52.278;6.808;2023-05-10T05:32:29;100757.03;;;14.51;93.25
68871;BME280;55906;52.278;6.808;2023-05-10T05:34:56;100758.78;;;14.49;93.41
68871;BME280;55906;52.278;6.808;2023-05-10T05:37:23;100742.03;;;14.50;93.49
68871;BME280;55906;52.278;6.808;2023-05-10T05:39:49;100751.75;;;14.54;93.06
68871;BME280;55906;52.278;6.808;2023-05-10T05:42:16;100756.19;;;14.57;93.06
68871;BME280;55906;52.278;6.808;2023-05-10T05:44:44;100758.88;;;14.61;92.95
68871;BME280;55906;52.278;6.808;2023-05-10T05:47:12;100755.34;;;14.61;93.00
68871;BME280;55906;52.278;6.808;2023-05-10T05:49:38;100756.25;;;14.63;92.67
68871;BME280;55906;52.278;6.808;2023-05-10T05:52:05;100772.16;;;14.67;92.69
68871;BME280;55906;52.278;6.808;2023-05-10T05:54:32;100773.00;;;14.60;92.65
68871;BME280;55906;52.278;6.808;2023-05-10T05:56:59;100765.97;;;14.65;92.56
68871;BME280;55906;52.278;6.808;2023-05-10T05:59:26;100771.25;;;14.64;92.48
68871;BME280;55906;52.278;6.808;2023-05-10T06:01:53;100771.28;;;14.68;92.81
68871;BME280;55906;52.278;6.808;2023-05-10T06:04:21;100776.59;;;14.71;92.47
68871;BME280;55906;52.278;6.808;2023-05-10T06:06:48;100787.25;;;14.78;92.00
68871;BME280;55906;52.278;6.808;2023-05-10T06:09:14;100781.91;;;14.71;92.14
68871;BME280;55906;52.278;6.808;2023-05-10T06:11:41;100782.84;;;14.78;92.02
68871;BME280;55906;52.278;6.808;2023-05-10T06:14:08;100775.78;;;14.80;91.92
68871;BME280;55906;52.278;6.808;2023-05-10T06:16:34;100769.59;;;14.80;91.89
68871;BME280;55906;52.278;6.808;2023-05-10T06:19:01;100771.41;;;14.84;91.62
68871;BME280;55906;52.278;6.808;2023-05-10T06:21:29;100771.44;;;14.91;91.23
68871;BME280;55906;52.278;6.808;2023-05-10T06:23:56;100780.28;;;14.90;91.35
68871;BME280;55906;52.278;6.808;2023-05-10T06:26:23;100782.91;;;14.90;90.92
68871;BME280;55906;52.278;6.808;2023-05-10T06:28:50;100789.97;;;14.88;90.98
68871;BME280;55906;52.278;6.808;2023-05-10T06:31:16;100795.31;;;14.94;90.99
68871;BME280;55906;52.278;6.808;2023-05-10T06:33:43;100800.59;;;14.91;91.30
68871;BME280;55906;52.278;6.808;2023-05-10T06:36:10;100797.94;;;14.91;91.13
68871;BME280;55906;52.278;6.808;2023-05-10T06:38:38;100799.69;;;14.88;91.15
68871;BME280;55906;52.278;6.808;2023-05-10T06:41:05;100797.00;;;14.86;91.42
68871;BME280;55906;52.278;6.808;2023-05-10T06:43:31;100797.91;;;14.90;91.00
68871;BME280;55906;52.278;6.808;2023-05-10T06:45:58;100801.41;;;14.83;90.91
68871;BME280;55906;52.278;6.808;2023-05-10T06:48:24;100806.66;;;14.77;90.71
68871;BME280;55906;52.278;6.808;2023-05-10T06:50:51;100806.59;;;14.67;90.93
68871;BME280;55906;52.278;6.808;2023-05-10T06:53:18;100811.88;;;14.67;91.01
68871;BME280;55906;52.278;6.808;2023-05-10T06:55:46;100799.47;;;14.60;90.93
68871;BME280;55906;52.278;6.808;2023-05-10T06:58:12;100817.09;;;14.58;91.16
68871;BME280;55906;52.278;6.808;2023-05-10T07:00:39;100813.56;;;14.59;91.18
68871;BME280;55906;52.278;6.808;2023-05-10T07:03:08;100814.44;;;14.58;91.40
68871;BME280;55906;52.278;6.808;2023-05-10T07:05:35;100818.00;;;14.62;91.00
68871;BME280;55906;52.278;6.808;2023-05-10T07:08:02;100818.06;;;14.66;91.17
68871;BME280;55906;52.278;6.808;2023-05-10T07:10:29;100819.00;;;14.75;90.83
68871;BME280;55906;52.278;6.808;2023-05-10T07:12:56;100822.59;;;14.83;90.64
68871;BME280;55906;52.278;6.808;2023-05-10T07:15:23;100824.41;;;14.90;90.56
68871;BME280;55906;52.278;6.808;2023-05-10T07:17:50;100824.50;;;15.02;90.30
68871;BME280;55906;52.278;6.808;2023-05-10T07:20:17;100828.13;;;15.18;89.75
68871;BME280;55906;52.278;6.808;2023-05-10T07:22:43;100821.97;;;15.22;89.08
68871;BME280;55906;52.278;6.808;2023-05-10T07:25:10;100828.25;;;15.34;88.87
68871;BME280;55906;52.278;6.808;2023-05-10T07:27:37;100831.75;;;15.33;88.41
68871;BME280;55906;52.278;6.808;2023-05-10T07:30:06;100844.22;;;15.47;87.85
68871;BME280;55906;52.278;6.808;2023-05-10T07:32:33;100833.75;;;15.65;87.20
68871;BME280;55906;52.278;6.808;2023-05-10T07:35:00;100837.41;;;15.90;87.19
68871;BME280;55906;52.278;6.808;2023-05-10T07:37:26;100835.72;;;16.15;86.42
68871;BME280;55906;52.278;6.808;2023-05-10T07:39:53;100833.94;;;16.23;85.51
68871;BME280;55906;52.278;6.808;2023-05-10T07:42:19;100830.44;;;16.38;85.33
68871;BME280;55906;52.278;6.808;2023-05-10T07:44:46;100828.69;;;16.47;84.93
68871;BME280;55906;52.278;6.808;2023-05-10T07:47:14;100841.06;;;16.48;83.85
68871;BME280;55906;52.278;6.808;2023-05-10T07:49:40;100834.00;;;16.44;83.47
68871;BME280;55906;52.278;6.808;2023-05-10T07:52:07;100841.06;;;16.42;83.54
68871;BME280;55906;52.278;6.808;2023-05-10T07:54:34;100844.59;;;16.35;82.71
68871;BME280;55906;52.278;6.808;2023-05-10T07:57:00;100847.22;;;16.20;83.00
68871;BME280;55906;52.278;6.808;2023-05-10T07:59:27;100854.25;;;16.03;82.95
68871;BME280;55906;52.278;6.808;2023-05-10T08:01:53;100860.38;;;15.89;83.60
68871;BME280;55906;52.278;6.808;2023-05-10T08:04:22;100852.44;;;15.91;84.24
68871;BME280;55906;52.278;6.808;2023-05-10T08:06:49;100861.28;;;15.94;84.02
68871;BME280;55906;52.278;6.808;2023-05-10T08:09:16;100862.19;;;15.98;83.82
68871;BME280;55906;52.278;6.808;2023-05-10T08:11:43;100865.75;;;16.02;83.79
68871;BME280;55906;52.278;6.808;2023-05-10T08:14:09;100873.72;;;16.02;83.80
68871;BME280;55906;52.278;6.808;2023-05-10T08:16:36;100873.72;;;16.05;83.61
68871;BME280;55906;52.278;6.808;2023-05-10T08:19:02;100876.38;;;16.08;83.83
68871;BME280;55906;52.278;6.808;2023-05-10T08:21:31;100879.00;;;15.98;83.85
68871;BME280;55906;52.278;6.808;2023-05-10T08:23:57;100882.53;;;15.99;83.34
68871;BME280;55906;52.278;6.808;2023-05-10T08:26:24;100885.19;;;15.96;83.11
68871;BME280;55906;52.278;6.808;2023-05-10T08:28:51;100894.88;;;15.91;83.17
68871;BME280;55906;52.278;6.808;2023-05-10T08:31:18;100893.13;;;15.93;83.33
68871;BME280;55906;52.278;6.808;2023-05-10T08:33:44;100886.94;;;15.89;83.30
68871;BME280;55906;52.278;6.808;2023-05-10T08:36:11;100893.97;;;15.84;83.59
68871;BME280;55906;52.278;6.808;2023-05-10T08:38:40;100897.50;;;15.80;83.80
68871;BME280;55906;52.278;6.808;2023-05-10T08:41:07;100894.84;;;15.80;83.72
68871;BME280;55906;52.278;6.808;2023-05-10T08:43:35;100901.94;;;15.86;83.58
68871;BME280;55906;52.278;6.808;2023-05-10T08:46:04;100901.06;;;15.88;83.58
68871;BME280;55906;52.278;6.808;2023-05-10T08:48:33;100905.47;;;15.86;83.17
68871;BME280;55906;52.278;6.808;2023-05-10T08:51:02;100902.88;;;15.94;83.40
68871;BME280;55906;52.278;6.808;2023-05-10T08:53:30;100905.56;;;16.08;83.15
68871;BME280;55906;52.278;6.808;2023-05-10T08:56:01;100908.25;;;16.09;82.78
68871;BME280;55906;52.278;6.808;2023-05-10T08:58:29;100914.41;;;16.05;82.74
68871;BME280;55906;52.278;6.808;2023-05-10T09:00:56;100922.34;;;16.00;82.88
68871;BME280;55906;52.278;6.808;2023-05-10T09:03:24;100916.19;;;16.08;82.83
68871;BME280;55906;52.278;6.808;2023-05-10T09:05:50;100925.94;;;16.15;82.92
68871;BME280;55906;52.278;6.808;2023-05-10T09:08:18;100924.19;;;16.20;82.98
68871;BME280;55906;52.278;6.808;2023-05-10T09:10:45;100929.50;;;16.14;83.08
68871;BME280;55906;52.278;6.808;2023-05-10T09:13:14;100931.19;;;15.99;82.72
68871;BME280;55906;52.278;6.808;2023-05-10T09:15:43;100931.16;;;15.93;82.99
68871;BME280;55906;52.278;6.808;2023-05-10T09:18:09;100931.19;;;15.95;82.53
68871;BME280;55906;52.278;6.808;2023-05-10T09:20:36;100934.75;;;16.06;82.57
68871;BME280;55906;52.278;6.808;2023-05-10T09:23:03;100941.00;;;16.19;82.63
68871;BME280;55906;52.278;6.808;2023-05-10T09:25:30;100938.41;;;16.31;81.62
68871;BME280;55906;52.278;6.808;2023-05-10T09:27:58;100943.75;;;16.40;81.25
68871;BME280;55906;52.278;6.808;2023-05-10T09:30:27;100946.44;;;16.51;81.10
68871;BME280;55906;52.278;6.808;2023-05-10T09:32:54;100952.63;;;16.47;80.70
68871;BME280;55906;52.278;6.808;2023-05-10T09:35:23;100941.13;;;16.51;80.54
68871;BME280;55906;52.278;6.808;2023-05-10T09:37:52;100951.75;;;16.52;80.92
68871;BME280;55906;52.278;6.808;2023-05-10T09:40:21;100952.63;;;16.54;80.34
68871;BME280;55906;52.278;6.808;2023-05-10T09:42:54;100964.13;;;16.52;80.38
68871;BME280;55906;52.278;6.808;2023-05-10T09:45:22;100960.56;;;16.39;80.32
68871;BME280;55906;52.278;6.808;2023-05-10T09:47:50;100961.44;;;16.40;79.81
68871;BME280;55906;52.278;6.808;2023-05-10T09:50:17;100965.84;;;16.36;79.77
68871;BME280;55906;52.278;6.808;2023-05-10T09:52:47;100964.06;;;16.33;79.47
68871;BME280;55906;52.278;6.808;2023-05-10T09:55:14;100968.53;;;16.39;78.42
68871;BME280;55906;52.278;6.808;2023-05-10T09:57:41;100970.28;;;16.37;78.16
68871;BME280;55906;52.278;6.808;2023-05-10T10:00:08;100968.53;;;16.42;77.84
68871;BME280;55906;52.278;6.808;2023-05-10T10:02:36;100972.94;;;16.40;77.53
68871;BME280;55906;52.278;6.808;2023-05-10T10:05:06;100967.69;;;16.60;77.66
68871;BME280;55906;52.278;6.808;2023-05-10T10:07:33;100969.53;;;16.72;75.65
68871;BME280;55906;52.278;6.808;2023-05-10T10:10:00;100966.91;;;16.90;75.28
68871;BME280;55906;52.278;6.808;2023-05-10T10:12:27;100972.28;;;17.11;74.60
68871;BME280;55906;52.278;6.808;2023-05-10T10:14:55;100970.53;;;17.32;74.42
68871;BME280;55906;52.278;6.808;2023-05-10T10:17:23;100978.50;;;17.41;73.49
68871;BME280;55906;52.278;6.808;2023-05-10T10:19:51;100982.03;;;17.46;73.50
68871;BME280;55906;52.278;6.808;2023-05-10T10:22:19;100982.91;;;17.65;72.90
68871;BME280;55906;52.278;6.808;2023-05-10T10:24:46;100974.94;;;17.62;71.95
68871;BME280;55906;52.278;6.808;2023-05-10T10:27:21;100982.06;;;17.69;71.92
68871;BME280;55906;52.278;6.808;2023-05-10T10:30:01;100975.81;;;17.64;71.88
68871;BME280;55906;52.278;6.808;2023-05-10T10:32:38;100982.94;;;17.69;72.13
68871;BME280;55906;52.278;6.808;2023-05-10T10:35:08;100982.03;;;17.58;71.55
68871;BME280;55906;52.278;6.808;2023-05-10T10:37:45;100982.94;;;17.51;70.76
68871;BME280;55906;52.278;6.808;2023-05-10T10:40:26;100978.50;;;17.44;71.25
68871;BME280;55906;52.278;6.808;2023-05-10T10:42:54;100977.59;;;17.39;71.49
68871;BME280;55906;52.278;6.808;2023-05-10T10:45:22;100979.38;;;17.52;71.64
68871;BME280;55906;52.278;6.808;2023-05-10T10:47:54;100980.28;;;17.72;70.73
68871;BME280;55906;52.278;6.808;2023-05-10T10:50:43;100983.81;;;17.82;69.99
68871;BME280;55906;52.278;6.808;2023-05-10T10:53:12;100977.47;;;18.18;69.69
68871;BME280;55906;52.278;6.808;2023-05-10T10:55:45;100975.56;;;18.64;68.60
68871;BME280;55906;52.278;6.808;2023-05-10T10:58:28;100970.88;;;19.01;67.80
68871;BME280;55906;52.278;6.808;2023-05-10T11:01:10;100972.28;;;19.56;67.54
68871;BME280;55906;52.278;6.808;2023-05-10T11:03:37;100976.75;;;19.46;66.04
68871;BME280;55906;52.278;6.808;2023-05-10T11:06:03;100978.50;;;19.55;64.58
68871;BME280;55906;52.278;6.808;2023-05-10T11:08:32;100973.78;;;19.84;64.52
68871;BME280;55906;52.278;6.808;2023-05-10T11:11:04;100983.09;;;20.26;63.37
68871;BME280;55906;52.278;6.808;2023-05-10T11:13:34;100975.78;;;20.42;61.65
68871;BME280;55906;52.278;6.808;2023-05-10T11:16:12;100974.84;;;20.46;59.56
68871;BME280;55906;52.278;6.808;2023-05-10T11:18:39;100988.91;;;20.60;60.91
68871;BME280;55906;52.278;6.808;2023-05-10T11:21:08;100990.56;;;20.70;58.99
68871;BME280;55906;52.278;6.808;2023-05-10T11:23:49;100980.31;;;21.03;59.01
68871;BME280;55906;52.278;6.808;2023-05-10T11:26:16;100979.31;;;21.08;58.29
68871;BME280;55906;52.278;6.808;2023-05-10T11:28:43;100985.63;;;21.06;57.64
68871;BME280;55906;52.278;6.808;2023-05-10T11:31:13;100985.53;;;21.11;56.92
68871;BME280;55906;52.278;6.808;2023-05-10T11:33:43;100987.31;;;21.12;55.43
68871;BME280;55906;52.278;6.808;2023-05-10T11:36:11;100989.78;;;21.27;55.92
68871;BME280;55906;52.278;6.808;2023-05-10T11:38:38;100993.91;;;21.46;55.68
68871;BME280;55906;52.278;6.808;2023-05-10T11:41:08;100995.78;;;21.92;55.27
68871;BME280;55906;52.278;6.808;2023-05-10T11:43:34;100996.59;;;21.95;55.38
68871;BME280;55906;52.278;6.808;2023-05-10T11:46:04;100997.97;;;21.70;55.08
68871;BME280;55906;52.278;6.808;2023-05-10T11:48:30;100997.22;;;21.62;55.91
68871;BME280;55906;52.278;6.808;2023-05-10T11:50:57;100996.00;;;21.29;55.99
68871;BME280;55906;52.278;6.808;2023-05-10T11:53:25;100996.28;;;21.09;55.73
68871;BME280;55906;52.278;6.808;2023-05-10T11:55:52;101001.69;;;21.04;55.77
68871;BME280;55906;52.278;6.808;2023-05-10T11:58:20;100990.16;;;21.01;56.52
68871;BME280;55906;52.278;6.808;2023-05-10T12:00:48;101002.34;;;21.19;56.24
68871;BME280;55906;52.278;6.808;2023-05-10T12:03:16;101000.63;;;21.16;56.15
68871;BME280;55906;52.278;6.808;2023-05-10T12:05:43;101015.22;;;20.94;55.99
68871;BME280;55906;52.278;6.808;2023-05-10T12:08:14;101018.38;;;20.56;55.92
68871;BME280;55906;52.278;6.808;2023-05-10T12:10:41;101018.28;;;20.63;56.63
68871;BME280;55906;52.278;6.808;2023-05-10T12:13:11;101015.66;;;20.60;56.75
68871;BME280;55906;52.278;6.808;2023-05-10T12:15:41;101024.81;;;20.41;57.69
68871;BME280;55906;52.278;6.808;2023-05-10T12:18:09;101023.91;;;20.40;57.62
68871;BME280;55906;52.278;6.808;2023-05-10T12:20:36;101028.22;;;20.52;57.37
68871;BME280;55906;52.278;6.808;2023-05-10T12:23:04;101023.63;;;20.65;57.61
68871;BME280;55906;52.278;6.808;2023-05-10T12:25:32;101027.13;;;20.68;57.08
68871;BME280;55906;52.278;6.808;2023-05-10T12:28:00;101029.00;;;20.62;57.28
68871;BME280;55906;52.278;6.808;2023-05-10T12:30:30;101039.09;;;20.35;57.63
68871;BME280;55906;52.278;6.808;2023-05-10T12:33:01;101036.63;;;20.17;57.47
68871;BME280;55906;52.278;6.808;2023-05-10T12:35:30;101039.44;;;20.03;57.48
68871;BME280;55906;52.278;6.808;2023-05-10T12:37:57;101036.81;;;19.99;58.22
68871;BME280;55906;52.278;6.808;2023-05-10T12:40:24;101034.88;;;20.14;57.80
68871;BME280;55906;52.278;6.808;2023-05-10T12:42:50;101041.88;;;20.25;58.32
68871;BME280;55906;52.278;6.808;2023-05-10T12:45:18;101038.25;;;20.30;58.08
68871;BME280;55906;52.278;6.808;2023-05-10T12:47:44;101041.75;;;20.40;57.47
68871;BME280;55906;52.278;6.808;2023-05-10T12:50:12;101039.88;;;20.47;57.77
68871;BME280;55906;52.278;6.808;2023-05-10T12:52:39;101043.34;;;20.55;57.92
68871;BME280;55906;52.278;6.808;2023-05-10T12:55:06;101041.38;;;20.69;57.42
68871;BME280;55906;52.278;6.808;2023-05-10T12:57:32;101046.78;;;20.64;57.75
68871;BME280;55906;52.278;6.808;2023-05-10T12:59:59;101037.88;;;20.64;56.07
68871;BME280;55906;52.278;6.808;2023-05-10T13:02:26;101046.03;;;20.55;55.65